createdAt,value
2022-08-22T00:00:21.822Z,89.50
2022-08-22T00:02:45.362Z,79.50
2022-08-22T00:02:53.533Z,75.50
2022-08-22T00:03:00.667Z,80.90
2022-08-22T00:03:10.470Z,86.30
2022-08-22T00:03:12.285Z,80.00
2022-08-22T00:06:08.492Z,89.30
2022-08-22T00:09:06.094Z,89.40
2022-08-22T00:12:08.787Z,89.20
2022-08-22T00:15:03.511Z,88.90
2022-08-22T00:17:45.542Z,88.80
2022-08-22T00:20:32.813Z,89.40
2022-08-22T00:23:25.028Z,89.30
2022-08-22T00:25:59.534Z,88.70
2022-08-22T00:28:44.542Z,89.50
2022-08-22T00:31:43.776Z,89.60
2022-08-22T00:34:15.964Z,90.10
2022-08-22T00:36:53.159Z,90.30
2022-08-22T00:39:31.334Z,90.00
2022-08-22T00:42:15.906Z,89.60
2022-08-22T00:45:15.339Z,89.20
2022-08-22T00:47:52.256Z,89.10
2022-08-22T00:50:27.087Z,88.60
2022-08-22T00:53:21.650Z,89.60
2022-08-22T00:56:10.010Z,90.00
2022-08-22T00:58:51.903Z,89.80
2022-08-22T01:01:29.907Z,88.90
2022-08-22T01:04:16.031Z,88.90
2022-08-22T01:07:15.086Z,88.80
2022-08-22T01:09:44.852Z,90.00
2022-08-22T01:12:49.800Z,90.10
2022-08-22T01:15:24.624Z,89.70
2022-08-22T01:18:16.343Z,89.80
2022-08-22T01:21:20.843Z,90.10
2022-08-22T01:24:28.609Z,90.10
2022-08-22T01:27:14.334Z,89.40
2022-08-22T01:30:17.011Z,89.70
2022-08-22T01:33:31.484Z,90.00
2022-08-22T01:36:23.905Z,90.40
2022-08-22T01:38:59.655Z,90.60
2022-08-22T01:41:44.916Z,90.80
2022-08-22T01:44:20.955Z,90.40
2022-08-22T01:46:54.146Z,89.70
2022-08-22T01:49:22.973Z,89.40
2022-08-22T01:52:07.930Z,89.30
2022-08-22T01:54:58.197Z,89.20
2022-08-22T01:57:26.337Z,89.10
2022-08-22T01:59:59.124Z,88.80
2022-08-22T02:02:57.298Z,89.00
2022-08-22T02:05:27.646Z,89.30
2022-08-22T02:08:02.992Z,88.90
2022-08-22T02:11:00.456Z,88.80
2022-08-22T02:13:50.143Z,88.80
2022-08-22T02:16:38.642Z,89.00
2022-08-22T02:19:14.725Z,89.40
2022-08-22T02:22:09.419Z,89.80
2022-08-22T02:25:04.382Z,90.50
2022-08-22T02:27:46.602Z,90.80
2022-08-22T02:30:20.343Z,91.40
2022-08-22T02:33:08.545Z,91.30
2022-08-22T02:35:57.493Z,91.60
2022-08-22T02:38:36.493Z,91.60
2022-08-22T02:41:43.948Z,91.10
2022-08-22T02:44:28.515Z,90.30
2022-08-22T02:47:09.770Z,89.90
2022-08-22T02:49:48.110Z,89.50
2022-08-22T02:52:25.135Z,89.90
2022-08-22T02:55:13.245Z,89.90
2022-08-22T02:57:52.592Z,89.80
2022-08-22T03:00:31.485Z,89.70
2022-08-22T03:03:14.904Z,89.50
2022-08-22T03:05:49.309Z,89.70
2022-08-22T03:08:24.694Z,89.70
2022-08-22T03:10:54.675Z,90.00
2022-08-22T03:13:35.825Z,90.70
2022-08-22T03:16:36.989Z,90.50
2022-08-22T03:19:18.731Z,90.80
2022-08-22T03:21:55.597Z,90.80
2022-08-22T03:24:38.606Z,90.80
2022-08-22T03:27:27.813Z,90.60
2022-08-22T03:30:12.242Z,90.90
2022-08-22T03:32:47.814Z,90.30
2022-08-22T03:35:46.166Z,90.50
2022-08-22T03:38:33.569Z,90.50
2022-08-22T03:41:18.160Z,90.60
2022-08-22T03:44:17.833Z,89.90
2022-08-22T03:47:12.395Z,90.20
2022-08-22T03:49:45.197Z,90.80
2022-08-22T03:53:00.351Z,91.10
2022-08-22T03:55:39.557Z,91.10
2022-08-22T03:58:39.314Z,91.10
2022-08-22T04:01:42.787Z,90.90
2022-08-22T04:04:21.362Z,91.00
2022-08-22T04:06:57.514Z,91.70
2022-08-22T04:09:37.615Z,91.80
2022-08-22T04:12:39.234Z,92.10
2022-08-22T04:15:29.735Z,91.60
2022-08-22T04:18:19.288Z,91.80
2022-08-22T04:21:16.278Z,92.00
2022-08-22T04:24:31.107Z,91.60
2022-08-22T04:27:20.938Z,92.00
2022-08-22T04:30:14.310Z,92.00
2022-08-22T04:32:43.358Z,92.30
2022-08-22T04:35:32.334Z,92.20
2022-08-22T04:38:01.316Z,93.00
2022-08-22T04:40:43.340Z,92.50
2022-08-22T04:43:35.932Z,91.80
2022-08-22T04:46:02.672Z,91.90
2022-08-22T04:48:38.649Z,92.00
2022-08-22T04:51:25.318Z,91.40
2022-08-22T04:54:29.456Z,91.70
2022-08-22T04:57:32.574Z,91.40
2022-08-22T05:00:06.074Z,91.10
2022-08-22T05:02:34.081Z,91.30
2022-08-22T05:05:14.151Z,91.00
2022-08-22T05:07:53.537Z,91.60
2022-08-22T05:10:26.046Z,91.20
2022-08-22T05:13:02.721Z,91.50
2022-08-22T05:15:38.485Z,91.40
2022-08-22T05:18:09.921Z,91.70
2022-08-22T05:20:40.127Z,91.70
2022-08-22T05:23:17.597Z,91.30
2022-08-22T05:25:49.557Z,91.90
2022-08-22T05:28:34.398Z,91.50
2022-08-22T05:31:18.531Z,92.20
2022-08-22T05:33:55.057Z,92.40
2022-08-22T05:36:25.407Z,92.40
2022-08-22T05:39:07.679Z,92.00
2022-08-22T05:41:37.889Z,92.30
2022-08-22T05:44:13.683Z,92.10
2022-08-22T05:46:46.831Z,92.40
2022-08-22T05:49:40.263Z,92.40
2022-08-22T05:52:22.682Z,92.10
2022-08-22T05:55:03.211Z,92.30
2022-08-22T05:57:38.121Z,91.90
2022-08-22T06:00:12.314Z,91.80
2022-08-22T06:03:09.314Z,91.10
2022-08-22T06:05:39.973Z,91.40
2022-08-22T06:08:22.513Z,91.70
2022-08-22T06:10:56.900Z,92.20
2022-08-22T06:13:50.457Z,91.90
2022-08-22T06:16:20.455Z,92.00
2022-08-22T06:18:50.455Z,92.10
2022-08-22T06:21:41.897Z,91.80
2022-08-22T06:24:16.063Z,91.90
2022-08-22T06:26:48.818Z,91.40
2022-08-22T06:29:39.473Z,91.90
2022-08-22T06:32:15.866Z,91.60
2022-08-22T06:34:45.345Z,91.90
2022-08-22T06:37:37.387Z,92.10
2022-08-22T06:40:07.791Z,91.90
2022-08-22T06:42:40.861Z,92.20
2022-08-22T06:45:25.279Z,92.50
2022-08-22T06:48:06.270Z,92.00
2022-08-22T06:50:37.503Z,91.60
2022-08-22T06:53:06.485Z,91.30
2022-08-22T06:55:36.428Z,91.90
2022-08-22T06:58:06.348Z,92.00
2022-08-22T07:00:35.173Z,92.00
2022-08-22T07:03:15.070Z,91.60
2022-08-22T07:05:42.924Z,91.00
2022-08-22T07:08:13.592Z,91.10
2022-08-22T07:10:43.495Z,89.70
2022-08-22T07:13:16.255Z,89.90
2022-08-22T07:15:43.518Z,89.50
2022-08-22T07:18:19.093Z,88.80
2022-08-22T07:20:59.195Z,87.50
2022-08-22T07:23:58.355Z,87.60
2022-08-22T07:26:31.554Z,86.90
2022-08-22T07:29:01.789Z,86.30
2022-08-22T07:31:46.519Z,87.30
2022-08-22T07:34:27.838Z,87.00
2022-08-22T07:37:13.191Z,85.20
2022-08-22T07:39:56.354Z,84.20
2022-08-22T07:42:36.049Z,84.50
2022-08-22T07:45:11.506Z,83.10
2022-08-22T07:48:03.064Z,82.40
2022-08-22T07:50:34.868Z,82.20
2022-08-22T07:53:30.529Z,81.70
2022-08-22T07:56:00.089Z,80.70
2022-08-22T07:58:29.477Z,81.30
2022-08-22T08:00:58.053Z,80.70
2022-08-22T08:03:29.818Z,79.50
2022-08-22T08:05:57.137Z,78.10
2022-08-22T08:08:38.683Z,79.30
2022-08-22T08:11:10.579Z,77.50
2022-08-22T08:13:45.054Z,77.40
2022-08-22T08:16:21.674Z,76.10
2022-08-22T08:18:50.986Z,74.80
2022-08-22T08:21:42.859Z,74.50
2022-08-22T08:24:15.751Z,71.70
2022-08-22T08:27:08.010Z,71.90
2022-08-22T08:29:37.001Z,73.00
2022-08-22T08:32:09.278Z,70.40
2022-08-22T08:34:38.956Z,71.50
2022-08-22T08:37:17.096Z,70.80
2022-08-22T08:39:50.586Z,68.60
2022-08-22T08:42:58.427Z,67.00
2022-08-22T08:46:02.320Z,68.40
2022-08-22T08:48:57.619Z,65.90
2022-08-22T08:52:15.698Z,65.30
2022-08-22T08:54:56.857Z,64.40
2022-08-22T08:58:07.091Z,62.70
2022-08-22T09:00:51.292Z,61.10
2022-08-22T09:03:51.410Z,59.10
2022-08-22T09:06:38.379Z,58.20
2022-08-22T09:09:52.424Z,57.50
2022-08-22T09:12:59.782Z,58.70
2022-08-22T09:16:04.760Z,56.40
2022-08-22T09:18:41.187Z,52.90
2022-08-22T09:21:31.515Z,53.90
2022-08-22T09:24:42.844Z,51.80
2022-08-22T09:27:18.449Z,51.00
2022-08-22T09:29:57.118Z,51.20
2022-08-22T09:32:52.455Z,51.00
2022-08-22T09:35:34.748Z,52.00
2022-08-22T09:38:25.839Z,52.10
2022-08-22T09:41:19.469Z,51.80
2022-08-22T09:44:00.729Z,50.90
2022-08-22T09:46:37.141Z,52.80
2022-08-22T09:49:21.678Z,51.90
2022-08-22T09:52:34.027Z,51.80
2022-08-22T09:55:01.660Z,53.20
2022-08-22T09:57:51.048Z,52.90
2022-08-22T10:00:31.844Z,51.70
2022-08-22T10:03:03.646Z,49.60
2022-08-22T10:05:47.855Z,49.80
2022-08-22T10:08:26.239Z,48.60
2022-08-22T10:11:18.858Z,51.30
2022-08-22T10:13:57.427Z,50.50
2022-08-22T10:16:52.035Z,50.00
2022-08-22T10:19:39.931Z,50.90
2022-08-22T10:22:37.788Z,50.70
2022-08-22T10:25:24.403Z,50.30
2022-08-22T10:28:03.338Z,49.60
2022-08-22T10:31:17.831Z,48.90
2022-08-22T10:33:57.728Z,50.20
2022-08-22T10:37:10.333Z,47.80
2022-08-22T10:39:56.475Z,47.70
2022-08-22T10:42:27.878Z,49.30
2022-08-22T10:45:23.746Z,48.70
2022-08-22T10:48:08.612Z,48.30
2022-08-22T10:50:47.695Z,48.00
2022-08-22T10:53:35.855Z,47.90
2022-08-22T10:56:27.501Z,47.90
2022-08-22T10:59:04.166Z,51.30
2022-08-22T11:01:41.949Z,49.10
2022-08-22T11:04:28.565Z,47.00
2022-08-22T11:07:21.903Z,48.10
2022-08-22T11:09:59.863Z,49.40
2022-08-22T11:12:37.279Z,46.20
2022-08-22T11:15:33.257Z,48.30
2022-08-22T11:18:20.472Z,48.00
2022-08-22T11:21:00.734Z,48.00
2022-08-22T11:23:58.147Z,47.10
2022-08-22T11:26:47.336Z,46.20
2022-08-22T11:29:35.329Z,45.70
2022-08-22T11:32:23.099Z,46.70
2022-08-22T11:35:01.512Z,46.60
2022-08-22T11:38:03.105Z,45.10
2022-08-22T11:40:47.875Z,46.90
2022-08-22T11:43:32.910Z,46.00
2022-08-22T11:46:19.909Z,45.50
2022-08-22T11:49:03.415Z,46.20
2022-08-22T11:52:03.458Z,47.30
2022-08-22T11:54:36.462Z,44.40
2022-08-22T11:57:17.366Z,43.80
2022-08-22T11:59:50.379Z,44.70
2022-08-22T12:02:56.997Z,45.20
2022-08-22T12:05:46.475Z,41.70
2022-08-22T12:08:21.212Z,41.20
2022-08-22T12:11:16.670Z,41.30
2022-08-22T12:14:05.997Z,41.00
2022-08-22T12:16:47.403Z,40.90
2022-08-22T12:19:26.470Z,41.80
2022-08-22T12:22:03.046Z,40.80
2022-08-22T12:25:07.046Z,41.40
2022-08-22T12:27:36.642Z,40.40
2022-08-22T12:30:14.202Z,41.30
2022-08-22T12:33:00.719Z,39.30
2022-08-22T12:35:38.189Z,39.20
2022-08-22T12:38:27.960Z,37.00
2022-08-22T12:41:35.216Z,38.70
2022-08-22T12:44:17.638Z,39.10
2022-08-22T12:47:09.204Z,42.40
2022-08-22T12:49:49.873Z,42.50
2022-08-22T12:53:02.978Z,43.60
2022-08-22T12:55:50.471Z,42.40
2022-08-22T12:58:33.970Z,41.80
2022-08-22T13:01:06.276Z,41.60
2022-08-22T13:03:56.115Z,43.50
2022-08-22T13:06:35.124Z,40.60
2022-08-22T13:09:19.785Z,41.10
2022-08-22T13:12:04.637Z,40.50
2022-08-22T13:14:34.130Z,41.70
2022-08-22T13:17:10.198Z,42.70
2022-08-22T13:19:59.721Z,41.40
2022-08-22T13:22:29.573Z,42.20
2022-08-22T13:25:08.655Z,41.70
2022-08-22T13:27:50.967Z,41.80
2022-08-22T13:30:42.248Z,44.20
2022-08-22T13:33:22.519Z,42.20
2022-08-22T13:36:04.558Z,47.20
2022-08-22T13:38:46.322Z,44.80
2022-08-22T13:41:27.123Z,46.00
2022-08-22T13:44:08.934Z,45.00
2022-08-22T13:46:52.721Z,45.00
2022-08-22T13:49:52.581Z,45.90
2022-08-22T13:52:34.079Z,46.70
2022-08-22T13:55:27.634Z,47.20
2022-08-22T13:58:02.366Z,48.00
2022-08-22T14:00:57.276Z,48.60
2022-08-22T14:03:35.014Z,49.00
2022-08-22T14:06:35.305Z,48.30
2022-08-22T14:09:17.388Z,49.10
2022-08-22T14:12:18.447Z,49.00
2022-08-22T14:14:52.464Z,49.90
2022-08-22T14:17:24.273Z,49.60
2022-08-22T14:20:02.114Z,49.90
2022-08-22T14:22:35.883Z,50.10
2022-08-22T14:25:19.435Z,52.00
2022-08-22T14:27:57.687Z,51.30
2022-08-22T14:30:32.888Z,52.10
2022-08-22T14:33:19.878Z,51.80
2022-08-22T14:36:04.393Z,51.70
2022-08-22T14:38:39.391Z,52.20
2022-08-22T14:41:52.998Z,52.50
2022-08-22T14:44:25.278Z,52.50
2022-08-22T14:47:04.273Z,53.80
2022-08-22T14:49:56.271Z,53.50
2022-08-22T14:52:34.427Z,54.00
2022-08-22T14:55:26.065Z,54.40
2022-08-22T14:58:03.322Z,54.10
2022-08-22T15:00:37.285Z,54.30
2022-08-22T15:03:13.762Z,54.50
2022-08-22T15:05:53.046Z,55.50
2022-08-22T15:08:24.263Z,54.90
2022-08-22T15:11:20.506Z,53.90
2022-08-22T15:14:21.347Z,54.60
2022-08-22T15:16:57.683Z,55.50
2022-08-22T15:19:27.241Z,55.10
2022-08-22T15:22:16.484Z,54.50
2022-08-22T15:24:54.991Z,55.30
2022-08-22T15:27:25.450Z,54.90
2022-08-22T15:29:59.627Z,55.40
2022-08-22T15:32:30.880Z,55.70
2022-08-22T15:35:14.820Z,55.50
2022-08-22T15:37:56.330Z,55.00
2022-08-22T15:40:29.400Z,55.20
2022-08-22T15:43:00.176Z,53.20
2022-08-22T15:45:38.594Z,52.70
2022-08-22T15:48:11.248Z,52.80
2022-08-22T15:51:00.203Z,52.60
2022-08-22T15:53:50.818Z,52.00
2022-08-22T15:56:27.419Z,51.80
2022-08-22T15:59:53.745Z,51.70
2022-08-22T16:02:30.487Z,53.00
2022-08-22T16:05:25.021Z,52.80
2022-08-22T16:07:57.868Z,51.80
2022-08-22T16:10:24.806Z,52.30
2022-08-22T16:13:33.801Z,52.20
2022-08-22T16:16:12.304Z,52.40
2022-08-22T16:18:45.276Z,51.50
2022-08-22T16:21:22.888Z,51.00
2022-08-22T16:23:56.680Z,50.40
2022-08-22T16:26:29.529Z,50.10
2022-08-22T16:28:59.484Z,48.90
2022-08-22T16:31:32.611Z,48.30
2022-08-22T16:34:22.672Z,48.70
2022-08-22T16:37:14.575Z,49.50
2022-08-22T16:39:43.140Z,49.90
2022-08-22T16:42:15.771Z,51.40
2022-08-22T16:44:47.687Z,52.50
2022-08-22T16:47:19.731Z,54.50
2022-08-22T16:49:49.206Z,55.40
2022-08-22T16:52:24.727Z,57.00
2022-08-22T16:55:03.754Z,58.00
2022-08-22T16:58:10.081Z,59.00
2022-08-22T17:00:48.743Z,59.90
2022-08-22T17:03:41.079Z,60.70
2022-08-22T17:06:32.276Z,61.20
2022-08-22T17:09:27.053Z,61.50
2022-08-22T17:12:13.563Z,61.80
2022-08-22T17:14:54.704Z,61.90
2022-08-22T17:17:49.500Z,62.00
2022-08-22T17:20:43.929Z,62.60
2022-08-22T17:23:17.077Z,63.00
2022-08-22T17:25:52.749Z,63.30
2022-08-22T17:28:41.106Z,63.30
2022-08-22T17:31:15.624Z,64.00
2022-08-22T17:34:12.544Z,64.50
2022-08-22T17:36:56.963Z,64.80
2022-08-22T17:39:42.202Z,65.70
2022-08-22T17:42:41.358Z,65.40
2022-08-22T17:45:22.420Z,66.30
2022-08-22T17:48:20.596Z,66.50
2022-08-22T17:51:10.968Z,66.90
2022-08-22T17:53:52.710Z,67.50
2022-08-22T17:56:25.772Z,67.70
2022-08-22T17:59:05.115Z,67.90
2022-08-22T18:01:41.215Z,67.90
2022-08-22T18:04:19.112Z,68.50
2022-08-22T18:06:56.556Z,68.10
2022-08-22T18:09:44.019Z,68.10
2022-08-22T18:12:33.674Z,68.60
2022-08-22T18:15:33.896Z,69.10
2022-08-22T18:18:20.999Z,69.20
2022-08-22T18:21:02.443Z,68.90
2022-08-22T18:23:40.226Z,69.30
2022-08-22T18:26:33.785Z,69.70
2022-08-22T18:29:09.787Z,70.20
2022-08-22T18:31:55.035Z,69.90
2022-08-22T18:34:54.072Z,70.50
2022-08-22T18:37:32.938Z,70.80
2022-08-22T18:40:13.437Z,70.80
2022-08-22T18:43:05.873Z,71.60
2022-08-22T18:45:48.012Z,71.90
2022-08-22T18:48:59.391Z,71.60
2022-08-22T18:51:38.517Z,72.50
2022-08-22T18:54:06.790Z,73.20
2022-08-22T18:56:58.116Z,73.30
2022-08-22T18:59:43.594Z,73.30
2022-08-22T19:02:22.236Z,73.30
2022-08-22T19:05:32.694Z,72.90
2022-08-22T19:08:27.856Z,73.20
2022-08-22T19:11:18.951Z,73.20
2022-08-22T19:14:09.870Z,73.40
2022-08-22T19:16:48.908Z,73.90
2022-08-22T19:19:23.070Z,73.90
2022-08-22T19:22:20.795Z,74.00
2022-08-22T19:25:26.439Z,74.30
2022-08-22T19:28:11.557Z,74.30
2022-08-22T19:30:47.510Z,75.10
2022-08-22T19:33:29.268Z,75.30
2022-08-22T19:36:09.996Z,75.80
2022-08-22T19:38:57.396Z,76.80
2022-08-22T19:41:59.689Z,76.80
2022-08-22T19:44:26.407Z,76.60
2022-08-22T19:47:07.217Z,77.10
2022-08-22T19:49:45.023Z,77.30
2022-08-22T19:52:44.455Z,79.30
2022-08-22T19:55:22.363Z,80.00
2022-08-22T19:57:52.063Z,79.90
2022-08-22T20:00:41.090Z,80.80
2022-08-22T20:03:17.231Z,80.40
2022-08-22T20:06:43.084Z,80.70
2022-08-22T20:09:29.287Z,80.50
2022-08-22T20:12:01.678Z,81.00
2022-08-22T20:14:30.242Z,80.90
2022-08-22T20:17:06.540Z,81.50
2022-08-22T20:20:16.449Z,81.50
2022-08-22T20:22:39.179Z,81.30
2022-08-22T20:25:43.370Z,81.10
2022-08-22T20:28:13.687Z,81.80
2022-08-22T20:30:44.579Z,82.10
2022-08-22T20:33:21.618Z,82.50
2022-08-22T20:35:52.831Z,82.70
2022-08-22T20:38:25.943Z,82.40
2022-08-22T20:41:13.511Z,82.40
2022-08-22T20:43:51.469Z,82.30
2022-08-22T20:46:46.113Z,82.20
2022-08-22T20:49:34.568Z,82.60
2022-08-22T20:52:06.194Z,82.60
2022-08-22T20:54:37.965Z,82.40
2022-08-22T20:57:17.174Z,82.50
2022-08-22T20:59:55.688Z,82.00
2022-08-22T21:02:36.252Z,82.10
2022-08-22T21:05:12.624Z,82.90
2022-08-22T21:07:43.065Z,83.60
2022-08-22T21:10:34.312Z,83.50
2022-08-22T21:13:05.799Z,84.10
2022-08-22T21:15:36.350Z,84.90
2022-08-22T21:18:03.591Z,85.30
2022-08-22T21:20:34.246Z,86.00
2022-08-22T21:23:08.811Z,85.70
2022-08-22T21:25:56.631Z,85.30
2022-08-22T21:28:38.047Z,85.40
2022-08-22T21:31:25.459Z,85.10
2022-08-22T21:33:55.072Z,85.90
2022-08-22T21:36:25.227Z,85.90
2022-08-22T21:38:59.544Z,86.30
2022-08-22T21:41:31.942Z,86.70
2022-08-22T21:44:26.947Z,86.80
2022-08-22T21:46:54.728Z,86.20
2022-08-22T21:49:27.568Z,85.70
2022-08-22T21:51:54.468Z,85.20
2022-08-22T21:54:31.260Z,85.00
2022-08-22T21:57:14.310Z,85.30
2022-08-22T21:59:52.006Z,85.60
2022-08-22T22:02:41.056Z,86.00
2022-08-22T22:05:11.659Z,86.20
2022-08-22T22:07:44.693Z,86.30
2022-08-22T22:10:14.450Z,86.30
2022-08-22T22:12:42.794Z,86.00
2022-08-22T22:15:13.870Z,86.10
2022-08-22T22:17:40.654Z,85.80
2022-08-22T22:20:08.758Z,85.80
2022-08-22T22:22:37.068Z,86.70
2022-08-22T22:25:40.233Z,87.50
2022-08-22T22:28:14.903Z,87.90
2022-08-22T22:30:42.630Z,88.10
2022-08-22T22:33:10.150Z,88.30
2022-08-22T22:35:39.150Z,88.40
2022-08-22T22:38:07.120Z,88.30
2022-08-22T22:40:34.069Z,88.30
2022-08-22T22:43:00.941Z,87.90
2022-08-22T22:45:27.768Z,88.20
2022-08-22T22:47:54.536Z,88.00
2022-08-22T22:50:21.667Z,88.40
2022-08-22T22:52:48.584Z,88.60
2022-08-22T22:55:24.683Z,88.60
2022-08-22T22:57:58.804Z,88.60
2022-08-22T23:00:29.158Z,88.70
2022-08-22T23:03:00.465Z,88.70
2022-08-22T23:05:28.462Z,88.30
2022-08-22T23:07:55.482Z,88.10
2022-08-22T23:10:22.384Z,88.30
2022-08-22T23:12:49.283Z,88.50
2022-08-22T23:15:16.697Z,88.50
2022-08-22T23:17:43.797Z,88.80
2022-08-22T23:20:11.320Z,88.60
2022-08-22T23:22:38.152Z,88.50
2022-08-22T23:25:05.427Z,88.70
2022-08-22T23:27:32.297Z,88.50
2022-08-22T23:29:59.299Z,88.60
2022-08-22T23:32:26.108Z,88.60
2022-08-22T23:34:53.593Z,88.80
2022-08-22T23:37:22.031Z,88.90
2022-08-22T23:39:49.495Z,89.00
2022-08-22T23:42:18.039Z,88.90
2022-08-22T23:44:45.853Z,88.90
2022-08-22T23:47:15.261Z,88.90
2022-08-22T23:49:43.208Z,88.80
2022-08-22T23:52:12.455Z,89.20
2022-08-22T23:54:39.366Z,89.30
2022-08-22T23:57:11.468Z,89.40
2022-08-22T23:59:46.441Z,89.30
